Time;durP1;ratioP1;P1;durP2;ratioP2;P2;SDS_P1;SDS_P2;PMS_P1;PMS_P2;Temp;Humidity;BMP_temperature;BMP_pressure;BME280_temperature;BME280_humidity;BME280_pressure;Samples;Min_cycle;Max_cycle;Signal;HPM_P1;HPM_P2
2021/03/12 00:00:28;;;;;;;2.60;2.00;;;6.10;99.90;;;;;;5104995;28;20192;-79
2021/03/12 00:03:09;;;;;;;3.00;1.90;;;6.10;99.90;;;;;;5085335;28;20236;-80
2021/03/12 00:05:41;;;;;;;1.93;1.83;;;6.20;99.90;;;;;;5084916;28;20677;-78
2021/03/12 00:08:07;;;;;;;2.00;1.90;;;6.20;99.90;;;;;;5085901;28;20223;-79
2021/03/12 00:10:33;;;;;;;3.10;2.10;;;6.20;99.90;;;;;;5080952;28;20693;-79
2021/03/12 00:13:00;;;;;;;3.60;2.00;;;6.20;99.90;;;;;;5099191;28;20213;-79
2021/03/12 00:15:27;;;;;;;2.63;2.47;;;6.30;99.90;;;;;;5087714;28;20205;-79
2021/03/12 00:17:53;;;;;;;3.50;2.90;;;6.30;99.90;;;;;;5084839;28;20190;-79
2021/03/12 00:20:23;;;;;;;3.90;3.40;;;6.30;99.90;;;;;;5106050;28;20266;-80
2021/03/12 00:22:50;;;;;;;3.77;3.03;;;6.40;99.90;;;;;;5084847;28;20232;-79
2021/03/12 00:25:21;;;;;;;4.07;3.30;;;6.40;99.90;;;;;;5080999;28;20198;-79
2021/03/12 00:27:47;;;;;;;3.40;3.20;;;6.40;99.90;;;;;;5101875;28;20198;-80
2021/03/12 00:30:14;;;;;;;3.50;3.20;;;6.40;99.90;;;;;;5085128;28;20652;-79
2021/03/12 00:32:41;;;;;;;3.73;3.43;;;6.40;99.90;;;;;;5084584;28;20242;-80
2021/03/12 00:35:08;;;;;;;5.03;3.50;;;6.40;99.90;;;;;;5084619;28;20197;-80
2021/03/12 00:37:36;;;;;;;3.93;3.40;;;6.40;99.90;;;;;;5084886;28;20624;-80
2021/03/12 00:40:06;;;;;;;3.40;3.20;;;6.40;99.90;;;;;;5088225;28;20189;-79
2021/03/12 00:42:33;;;;;;;3.97;3.67;;;6.40;99.90;;;;;;5083543;28;20241;-80
2021/03/12 00:44:59;;;;;;;4.10;3.20;;;6.40;99.90;;;;;;5081487;28;20205;-79
2021/03/12 00:47:25;;;;;;;4.00;3.70;;;6.40;99.90;;;;;;5085513;28;20215;-79
2021/03/12 00:49:52;;;;;;;4.00;3.70;;;6.40;99.90;;;;;;5084296;28;20198;-79
2021/03/12 00:52:18;;;;;;;4.43;3.80;;;6.50;99.90;;;;;;5084897;28;20693;-80
2021/03/12 00:54:46;;;;;;;4.00;3.70;;;6.50;99.90;;;;;;5081580;28;20209;-80
2021/03/12 00:57:21;;;;;;;3.90;3.40;;;6.50;99.90;;;;;;5093377;28;20272;-80
2021/03/12 00:59:48;;;;;;;3.33;3.10;;;6.50;99.90;;;;;;5108219;28;20250;-79
2021/03/12 01:02:14;;;;;;;3.77;3.50;;;6.50;99.90;;;;;;5086297;28;20214;-79
2021/03/12 01:04:41;;;;;;;4.23;3.83;;;6.50;99.90;;;;;;5089844;28;20208;-80
2021/03/12 01:07:11;;;;;;;3.90;3.60;;;6.50;99.90;;;;;;5088663;28;20233;-79
2021/03/12 01:09:39;;;;;;;4.00;3.70;;;6.50;99.90;;;;;;5107450;28;20258;-79
2021/03/12 01:12:08;;;;;;;4.17;3.77;;;6.50;99.90;;;;;;5089397;28;20697;-80
2021/03/12 01:14:38;;;;;;;3.43;3.30;;;6.50;99.90;;;;;;5085074;28;20225;-79
2021/03/12 01:17:04;;;;;;;3.83;3.40;;;6.50;99.90;;;;;;5090642;28;20198;-79
2021/03/12 01:19:32;;;;;;;3.60;3.40;;;6.50;99.90;;;;;;5082845;28;20330;-79
2021/03/12 01:22:03;;;;;;;4.53;4.00;;;6.50;99.90;;;;;;5085405;28;20663;-79
2021/03/12 01:24:31;;;;;;;3.67;3.37;;;6.50;99.90;;;;;;5079034;28;20198;-79
2021/03/12 01:27:05;;;;;;;4.00;3.70;;;6.50;99.90;;;;;;5087133;28;20214;-79
2021/03/12 01:29:32;;;;;;;6.17;3.40;;;6.50;99.90;;;;;;5085634;28;20224;-79
2021/03/12 01:32:09;;;;;;;3.87;3.63;;;6.50;99.90;;;;;;5087844;28;20229;-80
2021/03/12 01:34:42;;;;;;;4.47;3.77;;;6.50;99.90;;;;;;5083824;28;20216;-79
2021/03/12 01:37:08;;;;;;;3.60;3.40;;;6.50;99.90;;;;;;5089155;28;20181;-79
2021/03/12 01:39:45;;;;;;;5.53;3.40;;;6.50;99.90;;;;;;5087898;28;20265;-79
2021/03/12 01:42:12;;;;;;;4.47;4.00;;;6.50;99.90;;;;;;5085125;28;20220;-79
2021/03/12 01:44:42;;;;;;;4.10;3.80;;;6.50;99.90;;;;;;5087599;28;20654;-79
2021/03/12 01:47:09;;;;;;;4.07;3.63;;;6.50;99.90;;;;;;5105263;28;20252;-79
2021/03/12 01:49:36;;;;;;;3.50;3.30;;;6.50;99.90;;;;;;5075065;28;20673;-80
2021/03/12 01:52:03;;;;;;;3.77;3.47;;;6.40;99.90;;;;;;5090565;28;20221;-78
2021/03/12 01:54:33;;;;;;;4.00;3.70;;;6.40;99.90;;;;;;5080717;28;20250;-80
2021/03/12 01:57:03;;;;;;;3.77;3.53;;;6.30;99.90;;;;;;5081944;28;20193;-80
2021/03/12 01:59:38;;;;;;;3.77;3.47;;;6.30;99.90;;;;;;5088672;28;20193;-79
2021/03/12 02:02:13;;;;;;;4.40;3.60;;;6.30;99.90;;;;;;5087446;28;20221;-79
2021/03/12 02:04:56;;;;;;;3.63;3.33;;;6.20;99.90;;;;;;5081753;28;20217;-79
2021/03/12 02:07:23;;;;;;;3.50;3.30;;;6.30;99.90;;;;;;5088042;28;20257;-79
2021/03/12 02:10:09;;;;;;;2.93;2.80;;;6.20;99.90;;;;;;5087428;28;20201;-79
2021/03/12 02:12:51;;;;;;;3.37;3.03;;;6.20;99.90;;;;;;5089431;28;20228;-79
2021/03/12 02:15:22;;;;;;;3.00;2.80;;;6.20;99.90;;;;;;5087326;28;20201;-79
2021/03/12 02:17:55;;;;;;;2.93;2.80;;;6.20;99.90;;;;;;5090811;28;20265;-79
2021/03/12 02:20:45;;;;;;;2.90;2.77;;;6.10;99.90;;;;;;5089019;28;20204;-80
2021/03/12 02:23:23;;;;;;;4.03;3.30;;;6.20;99.90;;;;;;5087752;28;20208;-79
2021/03/12 02:25:58;;;;;;;2.53;2.40;;;6.10;99.90;;;;;;5086711;28;20205;-79
2021/03/12 02:28:26;;;;;;;4.73;3.40;;;6.10;99.90;;;;;;5101510;28;20221;-79
2021/03/12 02:30:54;;;;;;;8.57;7.83;;;6.00;99.90;;;;;;5083840;28;20225;-80
2021/03/12 02:33:22;;;;;;;8.33;7.83;;;6.00;99.90;;;;;;5086575;28;20240;-79
2021/03/12 02:35:54;;;;;;;8.57;7.93;;;6.00;99.90;;;;;;5085138;28;20202;-79
2021/03/12 02:38:34;;;;;;;8.47;7.97;;;6.00;99.90;;;;;;5085938;28;20197;-78
2021/03/12 02:41:07;;;;;;;8.80;8.20;;;6.00;99.90;;;;;;5085407;28;20267;-79
2021/03/12 02:43:46;;;;;;;8.60;8.00;;;6.00;99.90;;;;;;5087173;28;20201;-80
2021/03/12 02:46:18;;;;;;;8.70;8.10;;;6.00;99.90;;;;;;5088990;28;20201;-79
2021/03/12 02:48:45;;;;;;;8.90;8.23;;;6.00;99.90;;;;;;5087316;28;20572;-79
2021/03/12 02:51:12;;;;;;;8.77;8.00;;;6.00;99.90;;;;;;5083851;28;20259;-80
2021/03/12 02:53:39;;;;;;;8.50;8.00;;;6.00;99.90;;;;;;5086660;28;20641;-80
2021/03/12 02:56:22;;;;;;;8.50;7.90;;;6.00;99.90;;;;;;5086486;28;20616;-79
2021/03/12 02:58:51;;;;;;;8.60;8.00;;;6.00;99.90;;;;;;5085644;28;20622;-79
2021/03/12 03:01:33;;;;;;;7.87;7.43;;;5.90;99.90;;;;;;5086109;28;20214;-80
2021/03/12 03:04:12;;;;;;;8.30;7.80;;;5.90;99.90;;;;;;5085204;28;20197;-79
2021/03/12 03:06:55;;;;;;;7.90;7.50;;;5.80;99.90;;;;;;5085088;28;20229;-79
2021/03/12 03:09:25;;;;;;;8.37;7.87;;;5.80;99.90;;;;;;5089186;28;20670;-79
2021/03/12 03:11:52;;;;;;;8.57;8.00;;;5.80;99.90;;;;;;5105058;28;20217;-79
2021/03/12 03:14:20;;;;;;;8.30;7.80;;;5.80;99.90;;;;;;5083460;28;20194;-79
2021/03/12 03:16:49;;;;;;;8.83;8.00;;;5.70;99.90;;;;;;5085192;28;20239;-79
2021/03/12 03:19:18;;;;;;;9.73;8.83;;;5.70;99.90;;;;;;5085879;28;20285;-80
2021/03/12 03:21:47;;;;;;;8.50;7.90;;;5.60;99.90;;;;;;5088287;28;20251;-79
2021/03/12 03:24:14;;;;;;;8.70;8.20;;;5.60;99.90;;;;;;5088086;28;20971;-79
2021/03/12 03:26:41;;;;;;;8.53;7.83;;;5.50;99.90;;;;;;5080965;28;20540;-79
2021/03/12 03:29:08;;;;;;;9.27;8.60;;;5.50;99.90;;;;;;5087528;28;20634;-79
2021/03/12 03:31:37;;;;;;;8.20;7.80;;;5.50;99.90;;;;;;5083437;28;20667;-79
2021/03/12 03:34:04;;;;;;;7.67;7.17;;;5.40;99.90;;;;;;5084654;28;20269;-79
2021/03/12 03:36:31;;;;;;;7.33;6.93;;;5.50;99.90;;;;;;5084744;28;20444;-79
2021/03/12 03:38:58;;;;;;;8.10;7.60;;;5.40;99.90;;;;;;5086403;28;20531;-80
2021/03/12 03:41:24;;;;;;;9.13;8.27;;;5.40;99.90;;;;;;5078714;28;20221;-80
2021/03/12 03:43:54;;;;;;;8.27;7.53;;;5.30;99.90;;;;;;5091394;28;20190;-78
2021/03/12 03:46:26;;;;;;;7.77;7.20;;;5.40;99.90;;;;;;5082709;28;20508;-76
2021/03/12 03:48:55;;;;;;;8.00;7.40;;;5.40;99.90;;;;;;5071690;28;20197;-76
2021/03/12 03:51:54;;;;;;;8.20;7.50;;;5.40;99.90;;;;;;5088363;28;20281;-80
2021/03/12 03:54:26;;;;;;;7.50;6.90;;;5.40;99.90;;;;;;5079554;28;20447;-80
2021/03/12 03:57:00;;;;;;;8.27;7.50;;;5.30;99.90;;;;;;5075833;28;20436;-81
2021/03/12 03:59:28;;;;;;;7.83;7.30;;;5.30;99.90;;;;;;5077752;28;20251;-80
2021/03/12 04:01:55;;;;;;;6.93;6.43;;;5.30;99.90;;;;;;5095694;28;20448;-80
2021/03/12 04:04:27;;;;;;;7.90;7.20;;;5.30;99.90;;;;;;5078095;28;20501;-79
2021/03/12 04:06:56;;;;;;;7.40;6.80;;;5.40;99.90;;;;;;5081043;28;20568;-80
2021/03/12 04:09:23;;;;;;;7.60;7.00;;;5.50;99.90;;;;;;5070065;28;20630;-77
2021/03/12 04:11:50;;;;;;;8.23;7.63;;;5.50;99.90;;;;;;5090756;28;20233;-79
2021/03/12 04:14:25;;;;;;;7.97;7.17;;;5.60;99.90;;;;;;5084766;28;20197;-81
2021/03/12 04:16:53;;;;;;;8.17;7.57;;;5.60;99.90;;;;;;5084365;28;20194;-81
2021/03/12 04:19:20;;;;;;;8.37;7.83;;;5.60;99.90;;;;;;5086738;28;20216;-80
2021/03/12 04:21:48;;;;;;;7.67;7.10;;;5.70;99.90;;;;;;5107927;28;20823;-80
2021/03/12 04:24:16;;;;;;;7.57;6.97;;;5.70;99.90;;;;;;5091318;28;20734;-80
2021/03/12 04:26:44;;;;;;;8.10;7.60;;;5.70;99.90;;;;;;5082685;28;20297;-80
2021/03/12 04:29:16;;;;;;;7.93;7.43;;;5.70;99.90;;;;;;5076325;28;20199;-82
2021/03/12 04:31:42;;;;;;;9.17;8.47;;;5.80;99.90;;;;;;5081509;28;20725;-78
2021/03/12 04:34:10;;;;;;;7.50;7.10;;;5.80;99.90;;;;;;5084483;28;20798;-81
2021/03/12 04:36:41;;;;;;;7.80;7.30;;;5.80;99.90;;;;;;5086686;28;20212;-77
2021/03/12 04:39:10;;;;;;;8.30;7.70;;;5.80;99.90;;;;;;5084829;28;20236;-79
2021/03/12 04:41:37;;;;;;;3.33;3.07;;;5.80;99.90;;;;;;5085471;28;20218;-82
2021/03/12 04:44:10;;;;;;;3.77;3.47;;;5.80;99.90;;;;;;5083090;28;20671;-82
2021/03/12 04:46:38;;;;;;;3.57;3.37;;;5.80;99.90;;;;;;5093201;28;20657;-82
2021/03/12 04:49:07;;;;;;;4.60;3.70;;;5.80;99.90;;;;;;5093360;28;20437;-82
2021/03/12 04:51:34;;;;;;;3.57;3.27;;;5.80;99.90;;;;;;5087293;28;20227;-81
2021/03/12 04:54:06;;;;;;;4.27;2.40;;;5.80;99.90;;;;;;5081474;28;20190;-82
2021/03/12 04:56:34;;;;;;;3.77;3.47;;;5.80;99.90;;;;;;5076657;28;20194;-81
2021/03/12 04:59:02;;;;;;;4.20;3.63;;;5.70;99.90;;;;;;5084857;28;20218;-82
2021/03/12 05:01:29;;;;;;;3.77;3.47;;;5.70;99.90;;;;;;5083052;28;20681;-82
2021/03/12 05:03:55;;;;;;;3.50;3.23;;;5.60;99.90;;;;;;5082744;28;20202;-81
2021/03/12 05:06:23;;;;;;;4.10;3.30;;;5.60;99.90;;;;;;5085047;28;20198;-81
2021/03/12 05:09:02;;;;;;;6.33;3.30;;;5.50;99.90;;;;;;5084556;28;20629;-82
2021/03/12 05:11:34;;;;;;;6.10;3.50;;;5.50;99.90;;;;;;5080134;28;20213;-82
2021/03/12 05:14:07;;;;;;;3.80;3.60;;;5.40;99.90;;;;;;5086284;28;20224;-82
2021/03/12 05:16:38;;;;;;;5.97;3.43;;;5.40;99.90;;;;;;5079338;28;20194;-82
2021/03/12 05:19:06;;;;;;;4.13;3.47;;;5.30;99.90;;;;;;5078444;28;20922;-82
2021/03/12 05:21:33;;;;;;;3.37;2.23;;;5.30;99.90;;;;;;5087197;28;20217;-82
2021/03/12 05:24:02;;;;;;;3.27;2.80;;;5.20;99.90;;;;;;5082493;28;20444;-82
2021/03/12 05:26:29;;;;;;;2.30;2.10;;;5.20;99.90;;;;;;5085767;28;20443;-82
2021/03/12 05:28:57;;;;;;;1.80;1.70;;;5.20;99.90;;;;;;5083176;28;20443;-81
2021/03/12 05:31:24;;;;;;;4.40;2.33;;;5.20;99.90;;;;;;5084877;28;20995;-82
2021/03/12 05:33:51;;;;;;;2.93;2.07;;;5.10;99.90;;;;;;5082578;28;20449;-81
2021/03/12 05:36:19;;;;;;;2.37;2.10;;;5.10;99.90;;;;;;5078316;28;20220;-81
2021/03/12 05:38:46;;;;;;;5.77;2.20;;;5.10;99.90;;;;;;5098695;28;20432;-81
2021/03/12 05:41:14;;;;;;;3.80;2.37;;;5.20;99.90;;;;;;5090759;28;20491;-82
2021/03/12 05:43:41;;;;;;;2.40;2.13;;;5.20;99.90;;;;;;5086934;28;20520;-81
2021/03/12 05:46:10;;;;;;;2.47;2.27;;;5.20;99.90;;;;;;5085834;28;20218;-81
2021/03/12 05:48:40;;;;;;;2.20;2.00;;;5.20;99.90;;;;;;5088389;28;20218;-81
2021/03/12 05:51:07;;;;;;;2.53;2.00;;;5.20;99.90;;;;;;5085280;28;20213;-81
2021/03/12 05:53:34;;;;;;;3.53;2.20;;;5.20;99.90;;;;;;5084399;28;20290;-81
2021/03/12 05:56:02;;;;;;;3.10;2.23;;;5.20;99.90;;;;;;5082519;28;20450;-81
2021/03/12 05:58:40;;;;;;;3.13;2.23;;;5.20;99.90;;;;;;5085373;28;20198;-81
2021/03/12 06:01:09;;;;;;;2.57;1.97;;;5.30;99.90;;;;;;5085111;28;20312;-80
2021/03/12 06:03:35;;;;;;;3.73;2.30;;;5.30;99.90;;;;;;5084882;28;20447;-81
2021/03/12 06:06:04;;;;;;;4.57;2.23;;;5.40;99.90;;;;;;5085225;28;20445;-80
2021/03/12 06:08:33;;;;;;;3.07;2.13;;;5.40;99.90;;;;;;5081025;28;20226;-81
2021/03/12 06:10:59;;;;;;;2.80;2.60;;;5.50;99.90;;;;;;5088948;28;20228;-82
2021/03/12 06:13:45;;;;;;;6.83;3.70;;;5.60;99.90;;;;;;5077234;28;20275;-81
2021/03/12 06:16:26;;;;;;;3.87;3.33;;;5.60;99.90;;;;;;5096059;28;20190;-80
2021/03/12 06:19:16;;;;;;;3.60;3.27;;;5.70;99.90;;;;;;5095579;28;20200;-81
2021/03/12 06:21:45;;;;;;;3.70;3.33;;;5.70;99.90;;;;;;5074740;28;20222;-82
2021/03/12 06:24:26;;;;;;;4.30;3.90;;;5.70;99.90;;;;;;5087410;28;20202;-81
2021/03/12 06:27:09;;;;;;;4.90;4.60;;;5.70;99.90;;;;;;5079909;28;20211;-82
2021/03/12 06:29:38;;;;;;;5.23;4.63;;;5.80;99.90;;;;;;5085452;28;20194;-82
2021/03/12 06:32:43;;;;;;;6.43;5.80;;;5.90;99.90;;;;;;5100696;28;20244;-81
2021/03/12 06:35:21;;;;;;;7.27;6.67;;;5.90;99.90;;;;;;5086920;28;20205;-81
2021/03/12 06:38:19;;;;;;;3.87;3.40;;;6.10;99.90;;;;;;5085556;28;20196;-81
2021/03/12 06:40:59;;;;;;;3.27;2.97;;;6.20;99.90;;;;;;5092335;28;20627;-82
2021/03/12 06:43:47;;;;;;;4.07;3.60;;;6.50;99.90;;;;;;5084249;28;20266;-81
2021/03/12 06:46:14;;;;;;;4.37;2.77;;;6.90;99.90;;;;;;5088232;28;20203;-82
2021/03/12 06:49:00;;;;;;;5.40;3.70;;;7.30;99.90;;;;;;5084930;28;20216;-81
2021/03/12 06:51:32;;;;;;;4.47;2.20;;;7.60;99.90;;;;;;5074186;28;20271;-81
2021/03/12 06:54:06;;;;;;;3.47;3.17;;;7.70;99.90;;;;;;5080951;28;20198;-81
2021/03/12 06:56:37;;;;;;;4.30;2.90;;;7.70;99.90;;;;;;5087449;28;20206;-82
2021/03/12 06:59:12;;;;;;;4.60;3.67;;;7.60;99.90;;;;;;5085515;28;20190;-82
2021/03/12 07:01:59;;;;;;;3.80;3.43;;;7.50;99.90;;;;;;5084437;28;20223;-81
2021/03/12 07:04:29;;;;;;;4.33;3.60;;;7.30;99.90;;;;;;5084672;28;20213;-80
2021/03/12 07:07:10;;;;;;;4.50;3.60;;;7.30;99.90;;;;;;5082212;28;20215;-81
2021/03/12 07:09:38;;;;;;;4.10;3.70;;;7.20;99.90;;;;;;5087212;28;20252;-82
2021/03/12 07:12:12;;;;;;;3.87;3.53;;;7.20;99.90;;;;;;5087913;28;20219;-81
2021/03/12 07:14:39;;;;;;;7.80;4.00;;;7.40;99.90;;;;;;5101012;28;20723;-82
2021/03/12 07:17:14;;;;;;;4.93;3.43;;;7.60;99.90;;;;;;5080318;28;20304;-82
2021/03/12 07:19:44;;;;;;;3.40;3.10;;;7.90;99.90;;;;;;5082953;28;20201;-82
2021/03/12 07:22:11;;;;;;;5.47;4.97;;;8.20;99.90;;;;;;5084332;28;20705;-81
2021/03/12 07:24:41;;;;;;;5.90;5.50;;;8.20;99.90;;;;;;5086433;28;20228;-80
2021/03/12 07:27:13;;;;;;;6.20;5.27;;;8.10;99.90;;;;;;5083570;28;20212;-82
2021/03/12 07:30:05;;;;;;;6.40;5.90;;;7.90;99.90;;;;;;5087937;28;20737;-81
2021/03/12 07:32:39;;;;;;;7.20;6.70;;;7.70;99.90;;;;;;5080851;28;20761;-81
2021/03/12 07:35:09;;;;;;;8.83;8.13;;;7.70;99.90;;;;;;5082986;28;20196;-82
2021/03/12 07:37:58;;;;;;;7.90;7.33;;;7.60;99.90;;;;;;5096299;28;20206;-82
2021/03/12 07:40:31;;;;;;;5.80;5.40;;;7.60;99.90;;;;;;5080097;28;20203;-82
2021/03/12 07:43:08;;;;;;;5.50;5.10;;;7.70;99.90;;;;;;5078316;28;20286;-81
2021/03/12 07:45:48;;;;;;;6.13;5.73;;;7.70;99.90;;;;;;5082254;28;20195;-81
2021/03/12 07:48:15;;;;;;;5.63;5.13;;;7.70;99.90;;;;;;5101350;28;20280;-81
2021/03/12 07:51:17;;;;;;;4.80;4.50;;;7.80;99.90;;;;;;5038922;28;20233;-82
2021/03/12 07:53:52;;;;;;;5.37;4.87;;;7.80;99.90;;;;;;5074823;28;20305;-81
2021/03/12 07:56:52;;;;;;;5.83;5.30;;;7.80;99.90;;;;;;5086486;28;20199;-82
2021/03/12 07:59:59;;;;;;;5.20;4.80;;;8.00;99.90;;;;;;5068266;28;20204;-82
2021/03/12 08:02:57;;;;;;;5.00;4.60;;;8.10;99.90;;;;;;5078346;28;20224;-82
2021/03/12 08:05:45;;;;;;;4.60;4.20;;;8.20;99.90;;;;;;5087232;28;20230;-83
2021/03/12 08:08:48;;;;;;;6.07;4.93;;;8.30;99.90;;;;;;5084668;28;20278;-82
2021/03/12 08:11:36;;;;;;;6.47;6.13;;;8.40;99.90;;;;;;5102232;28;20220;-83
2021/03/12 08:14:26;;;;;;;7.00;6.40;;;8.30;99.90;;;;;;5073454;28;20252;-79
2021/03/12 08:17:17;;;;;;;7.47;6.97;;;8.30;99.90;;;;;;5085344;28;20190;-82
2021/03/12 08:19:53;;;;;;;7.97;7.37;;;8.40;99.90;;;;;;5085629;28;20622;-82
2021/03/12 08:22:45;;;;;;;7.27;6.67;;;8.40;99.90;;;;;;5087177;28;20223;-82
2021/03/12 08:25:43;;;;;;;7.83;7.10;;;8.40;99.90;;;;;;5087452;28;20203;-83
2021/03/12 08:28:36;;;;;;;7.03;6.53;;;8.40;99.90;;;;;;5059546;28;20262;-82
2021/03/12 08:31:09;;;;;;;8.10;7.30;;;8.60;99.90;;;;;;5088761;28;20231;-82
2021/03/12 08:33:57;;;;;;;7.43;6.67;;;8.90;99.90;;;;;;5104347;28;20212;-83
2021/03/12 08:37:11;;;;;;;7.17;6.57;;;9.10;99.90;;;;;;5086618;28;20669;-83
2021/03/12 08:39:49;;;;;;;7.27;6.63;;;8.90;99.90;;;;;;5085680;28;20200;-82
2021/03/12 08:43:00;;;;;;;6.80;6.40;;;8.70;99.90;;;;;;5104628;28;20227;-82
2021/03/12 08:46:00;;;;;;;6.70;6.30;;;8.50;99.90;;;;;;5073978;28;20245;-83
2021/03/12 08:48:38;;;;;;;7.30;6.63;;;8.30;99.90;;;;;;5085649;28;20217;-82
2021/03/12 08:51:07;;;;;;;7.80;6.53;;;8.40;99.90;;;;;;5087885;28;20249;-82
2021/03/12 08:53:45;;;;;;;5.80;5.40;;;8.80;99.90;;;;;;5084185;28;20426;-83
2021/03/12 08:56:11;;;;;;;6.80;6.40;;;9.70;99.90;;;;;;5081306;28;20247;-83
2021/03/12 08:58:48;;;;;;;8.10;7.50;;;10.50;99.90;;;;;;5083808;28;20552;-83
2021/03/12 09:01:36;;;;;;;4.10;1.90;;;11.10;99.90;;;;;;5085654;28;20587;-83
2021/03/12 09:04:10;;;;;;;7.03;6.40;;;11.50;99.90;;;;;;5084985;28;20292;-83
2021/03/12 09:07:01;;;;;;;3.00;2.70;;;12.00;99.90;;;;;;5101026;28;20235;-83
2021/03/12 09:09:47;;;;;;;10.67;7.93;;;12.00;99.90;;;;;;5075067;28;20209;-82
2021/03/12 09:12:33;;;;;;;7.23;6.73;;;11.60;99.90;;;;;;5095605;28;20224;-82
2021/03/12 09:15:12;;;;;;;6.90;6.30;;;11.30;99.90;;;;;;5085809;28;20208;-83
2021/03/12 09:17:39;;;;;;;6.80;6.10;;;11.70;99.90;;;;;;5080823;28;20358;-83
2021/03/12 09:20:13;;;;;;;7.90;7.20;;;12.30;99.90;;;;;;5090661;28;20202;-83
2021/03/12 09:22:50;;;;;;;8.07;7.27;;;13.10;99.90;;;;;;5087592;28;20274;-82
2021/03/12 09:25:25;;;;;;;5.93;3.30;;;13.60;99.90;;;;;;5090782;28;20199;-83
2021/03/12 09:28:00;;;;;;;5.40;2.60;;;13.80;99.90;;;;;;5092275;28;20212;-83
2021/03/12 09:30:30;;;;;;;4.73;2.97;;;13.30;99.90;;;;;;5087696;28;20201;-83
2021/03/12 09:33:10;;;;;;;3.70;3.33;;;12.80;99.90;;;;;;5086990;28;20246;-83
2021/03/12 09:35:39;;;;;;;4.57;3.17;;;12.30;99.90;;;;;;5088952;28;20205;-82
2021/03/12 09:38:06;;;;;;;3.40;3.00;;;11.90;99.90;;;;;;5088730;28;20197;-82
2021/03/12 09:40:40;;;;;;;4.37;3.13;;;11.50;99.90;;;;;;5081151;28;20201;-82
2021/03/12 09:43:17;;;;;;;5.13;2.97;;;11.10;99.90;;;;;;5088522;28;20201;-82
2021/03/12 09:45:52;;;;;;;3.90;2.33;;;11.00;99.90;;;;;;5088002;28;20197;-83
2021/03/12 09:48:31;;;;;;;4.10;2.20;;;10.80;99.90;;;;;;5091743;28;20213;-83
2021/03/12 09:50:59;;;;;;;3.67;2.10;;;10.60;99.90;;;;;;5090013;28;20217;-82
2021/03/12 09:53:26;;;;;;;4.27;2.37;;;10.70;99.90;;;;;;5091755;28;20661;-82
2021/03/12 09:56:06;;;;;;;2.27;1.83;;;10.80;99.90;;;;;;5084578;28;20583;-81
2021/03/12 09:58:38;;;;;;;4.07;2.10;;;11.10;99.90;;;;;;5088579;28;20218;-83
2021/03/12 10:01:37;;;;;;;4.57;2.10;;;11.20;99.90;;;;;;5098011;28;20225;-82
2021/03/12 10:04:25;;;;;;;4.67;2.63;;;11.20;99.90;;;;;;5087382;28;20202;-82
2021/03/12 10:06:58;;;;;;;2.70;2.03;;;11.70;99.90;;;;;;5088605;28;20697;-83
2021/03/12 10:09:24;;;;;;;3.60;1.93;;;12.10;99.90;;;;;;5091070;28;20670;-82
2021/03/12 10:12:02;;;;;;;2.90;1.90;;;12.20;99.90;;;;;;5090624;28;20245;-82
2021/03/12 10:14:46;;;;;;;2.70;1.90;;;12.30;99.90;;;;;;5079245;28;20227;-82
2021/03/12 10:17:26;;;;;;;4.43;2.50;;;12.70;99.90;;;;;;5088445;28;20816;-83
2021/03/12 10:19:56;;;;;;;4.17;2.77;;;13.10;99.90;;;;;;5093509;28;20192;-83
2021/03/12 10:22:26;;;;;;;3.17;2.57;;;13.40;99.90;;;;;;5106828;28;20227;-83
2021/03/12 10:24:59;;;;;;;2.77;2.40;;;13.30;99.90;;;;;;5105905;28;20742;-83
2021/03/12 10:27:28;;;;;;;3.80;2.40;;;13.20;99.90;;;;;;5091276;28;20308;-82
2021/03/12 10:29:55;;;;;;;4.50;2.30;;;13.40;99.90;;;;;;5105509;28;20200;-83
2021/03/12 10:32:22;;;;;;;6.00;2.03;;;13.20;99.90;;;;;;5084468;28;20260;-83
2021/03/12 10:34:51;;;;;;;2.77;2.27;;;13.00;99.90;;;;;;5103893;28;20205;-81
2021/03/12 10:37:19;;;;;;;3.50;2.30;;;12.90;99.90;;;;;;5086542;28;20195;-83
2021/03/12 10:39:47;;;;;;;4.93;2.17;;;13.10;99.90;;;;;;5105129;28;20199;-82
2021/03/12 10:42:14;;;;;;;3.23;2.00;;;13.20;99.90;;;;;;5086625;28;20574;-83
2021/03/12 10:44:56;;;;;;;2.77;2.00;;;13.20;99.90;;;;;;5086325;28;20514;-83
2021/03/12 10:47:23;;;;;;;4.73;1.97;;;13.30;99.90;;;;;;5111852;28;20238;-83
2021/03/12 10:49:51;;;;;;;5.47;2.20;;;13.30;99.90;;;;;;5089764;28;20200;-82
2021/03/12 10:52:29;;;;;;;2.33;1.90;;;13.20;99.90;;;;;;5086220;28;20272;-82
2021/03/12 10:54:59;;;;;;;2.80;1.90;;;13.20;99.90;;;;;;5086621;28;20288;-82
2021/03/12 10:57:44;;;;;;;2.97;1.90;;;13.30;99.90;;;;;;5107602;28;20683;-82
2021/03/12 11:00:20;;;;;;;3.67;1.90;;;13.50;99.90;;;;;;5088291;28;20238;-82
2021/03/12 11:02:47;;;;;;;2.97;1.83;;;13.60;99.90;;;;;;5081549;28;20215;-83
2021/03/12 11:05:17;;;;;;;2.97;2.10;;;13.60;99.90;;;;;;5106038;28;20195;-82
2021/03/12 11:07:44;;;;;;;4.37;2.10;;;13.80;99.90;;;;;;5086036;28;20248;-82
2021/03/12 11:10:11;;;;;;;3.93;1.80;;;13.80;99.90;;;;;;5106028;28;20198;-83
2021/03/12 11:12:41;;;;;;;3.47;2.13;;;13.60;99.90;;;;;;5085525;28;20228;-82
2021/03/12 11:15:10;;;;;;;4.07;1.90;;;13.50;99.90;;;;;;5101250;28;20322;-82
2021/03/12 11:17:40;;;;;;;2.10;1.80;;;13.70;99.90;;;;;;5105689;28;20190;-83
2021/03/12 11:20:08;;;;;;;4.50;2.00;;;13.70;99.90;;;;;;5104378;28;20185;-82
2021/03/12 11:22:35;;;;;;;2.73;2.00;;;13.80;99.90;;;;;;5103553;28;20311;-83
2021/03/12 11:25:03;;;;;;;4.20;2.00;;;13.70;99.90;;;;;;5085942;28;20613;-83
2021/03/12 11:27:31;;;;;;;3.13;2.00;;;13.50;99.90;;;;;;5089692;28;20743;-83
2021/03/12 11:29:58;;;;;;;4.60;2.50;;;13.60;99.90;;;;;;5081516;28;20572;-81
2021/03/12 11:32:25;;;;;;;6.53;2.27;;;13.30;99.90;;;;;;5087532;28;20285;-83
2021/03/12 11:34:53;;;;;;;2.03;1.80;;;12.80;99.90;;;;;;5084046;28;20216;-83
2021/03/12 11:37:19;;;;;;;3.90;2.70;;;12.40;99.90;;;;;;5087410;28;20205;-82
2021/03/12 11:39:46;;;;;;;2.77;2.20;;;12.00;99.90;;;;;;5102488;28;20200;-81
2021/03/12 11:42:13;;;;;;;4.07;3.00;;;11.40;99.90;;;;;;5104877;28;20217;-83
2021/03/12 11:44:39;;;;;;;4.33;3.40;;;10.60;99.90;;;;;;5086580;28;20678;-82
2021/03/12 11:47:05;;;;;;;5.17;2.40;;;10.20;99.90;;;;;;5097310;28;20193;-80
2021/03/12 11:49:32;;;;;;;4.40;2.20;;;9.90;99.90;;;;;;5087204;28;20232;-82
2021/03/12 11:51:58;;;;;;;2.60;2.40;;;9.80;99.90;;;;;;5082259;28;20642;-82
2021/03/12 11:54:24;;;;;;;2.23;2.03;;;9.70;99.90;;;;;;5085023;28;20209;-82
2021/03/12 11:56:52;;;;;;;2.33;2.10;;;9.60;99.90;;;;;;5101745;28;20503;-82
2021/03/12 11:59:19;;;;;;;2.37;2.17;;;9.80;99.90;;;;;;5103255;28;20193;-82
2021/03/12 12:01:46;;;;;;;2.53;2.30;;;9.80;99.90;;;;;;5084074;28;20224;-82
2021/03/12 12:04:12;;;;;;;4.37;2.63;;;10.00;99.90;;;;;;5106493;28;20197;-82
2021/03/12 12:06:38;;;;;;;2.97;2.63;;;10.10;99.90;;;;;;5084333;28;20213;-81
2021/03/12 12:09:05;;;;;;;4.27;2.30;;;10.20;99.90;;;;;;5082283;28;20220;-81
2021/03/12 12:11:32;;;;;;;3.33;1.87;;;10.30;99.90;;;;;;5086403;28;20221;-82
2021/03/12 12:13:59;;;;;;;3.17;2.20;;;10.40;99.90;;;;;;5102186;28;20190;-82
2021/03/12 12:16:27;;;;;;;5.33;2.30;;;10.50;99.90;;;;;;5085831;28;20311;-82
2021/03/12 12:18:55;;;;;;;3.97;2.13;;;10.60;99.90;;;;;;5101719;28;20197;-82
2021/03/12 12:21:21;;;;;;;3.47;2.00;;;10.60;99.90;;;;;;5098195;28;20745;-82
2021/03/12 12:23:47;;;;;;;2.57;2.00;;;10.70;99.90;;;;;;5086786;28;20205;-82
2021/03/12 12:26:14;;;;;;;2.03;1.73;;;10.80;99.90;;;;;;5081660;28;20193;-82
2021/03/12 12:28:40;;;;;;;2.97;1.80;;;10.80;99.90;;;;;;5102918;28;20276;-81
2021/03/12 12:31:07;;;;;;;5.33;2.20;;;10.80;99.90;;;;;;5083745;28;20248;-80
2021/03/12 12:33:34;;;;;;;2.43;1.90;;;10.80;99.90;;;;;;5085753;28;20201;-82
2021/03/12 12:36:02;;;;;;;3.90;2.00;;;10.70;99.90;;;;;;5077674;28;20202;-82
2021/03/12 12:38:28;;;;;;;3.30;2.07;;;10.90;99.90;;;;;;5104240;28;20198;-81
2021/03/12 12:40:55;;;;;;;4.53;2.70;;;11.00;99.90;;;;;;5098770;28;20213;-81
2021/03/12 12:43:21;;;;;;;4.73;2.07;;;11.10;99.90;;;;;;5082826;28;20193;-82
2021/03/12 12:45:47;;;;;;;5.67;2.80;;;11.30;99.90;;;;;;5082260;28;20205;-82
2021/03/12 12:48:14;;;;;;;2.77;1.93;;;11.40;99.90;;;;;;5085617;28;20233;-82
2021/03/12 12:50:41;;;;;;;8.40;2.53;;;11.40;99.90;;;;;;5086689;28;20729;-82
2021/03/12 12:53:07;;;;;;;2.47;2.10;;;11.30;99.90;;;;;;5085486;28;20670;-82
2021/03/12 12:55:34;;;;;;;3.80;2.33;;;11.20;99.90;;;;;;5091761;28;20197;-82
2021/03/12 12:58:00;;;;;;;2.23;1.83;;;11.10;99.90;;;;;;5088707;28;20468;-82
2021/03/12 13:00:27;;;;;;;3.50;2.33;;;11.00;99.90;;;;;;5110780;28;20189;-83
2021/03/12 13:02:53;;;;;;;8.03;2.20;;;10.90;99.90;;;;;;5090115;28;20198;-82
2021/03/12 13:05:20;;;;;;;4.33;2.10;;;10.90;99.90;;;;;;5089419;28;20684;-82
2021/03/12 13:07:48;;;;;;;2.97;1.87;;;11.00;99.90;;;;;;5108826;28;20220;-83
2021/03/12 13:10:15;;;;;;;3.80;2.10;;;11.10;99.90;;;;;;5106250;28;20201;-82
2021/03/12 13:12:42;;;;;;;4.07;2.40;;;11.20;99.90;;;;;;5091530;28;20708;-82
2021/03/12 13:15:09;;;;;;;2.43;2.23;;;11.10;99.90;;;;;;5104145;28;20190;-82
2021/03/12 13:17:36;;;;;;;5.23;2.60;;;11.20;99.90;;;;;;5089761;28;20194;-82
2021/03/12 13:20:10;;;;;;;4.37;2.00;;;11.30;99.90;;;;;;5108965;28;20193;-82